Aeroporto :
LOGIN :

Iscrizione | Disclaimer

   EN    FR    IT 

 










Sommario :    VFR   VFR Marginale   IFR   IFR Intensivo   IFR Molto Intensivo
Visibilità : 
Base nubi : 
>= 8 km
>= 3000ft
5 / 8 km
1000 / 3000 ft
1500m / 5 km
500 / 1000 ft
800 / 1500m
200 / 500 ft
< 800m
< 200 ft
Simboli :   Temporali  Nebbia  Neve Forte  Precipitazioni Forti  Vento > 20 kt
SIGMETs :   Varie  Temporali  Ghiacco  Turbolenza  Onda orograficha  Ceneri Vulcaniche







- Altitudine del aeroporto : 1367 ft
- Codice IATA : FDH


EDNY - Friedrichshafen

ULTIMO METAR :
  • 171920Z 24013KT 9999 FEW031 OVC062 03/00 Q1012

METARs OBSOLETI :
  • 171850Z 25016KT 9999 -RA FEW036 BKN048 04/00 Q1012
  • 171820Z 26008KT 230V300 9999 SCT039 BKN052 04/00 Q1012
  • 171750Z 25014KT 9999 FEW020 OVC055 04/01 Q1011
  • 171720Z 23014KT 9999 FEW039 OVC057 04/01 Q1011
  • 171650Z 23014KT 9999 FEW062 04/01 Q1010

TAF TAF EDNY
Valido dal 17 a 18 ore il 18 a 18 ore UTC


171700Z 1718/1818 24015KT 9999 SCT025 BKN040
TEMPO 1718/1720 24015G25KT
TEMPO 1718/1806 2500 -SHSN BKN014TCU
BECMG 1805/1807 25005KT
BECMG 1812/1815 03005KT
Nessun NOTAM noto per questo aeroporto.



MetMap, La meteo Aeronautica in un colpo d'occhio ! - Copyright ORBIFLY Dicembre 2007 - Disclaimer

ORBIFLY MET'MAP TEAM :

Programmazione e sviluppo : Alexandra Zaïnal
Concezione e sviluppo : Baudouin d'Aumeries
Co-Programmazione e sviluppo : Marc-Olivier Méhu
Supporto tecnico e logistico : Manuel Goepfert
Aiuto per la traduzione : Arnaldo La Scala

Contatto : metmap@orbifly.com




FONTI E CREDITI :

   NOAA